createdAt,value
2023-03-04T00:08:35.165Z,99347.69
2023-03-04T00:18:41.129Z,99330.47
2023-03-04T00:28:47.682Z,99333.63
2023-03-04T00:38:51.874Z,99326.64
2023-03-04T00:48:57.602Z,99310.16
2023-03-04T00:59:03.322Z,99297.52
2023-03-04T01:09:09.551Z,99279.11
2023-03-04T01:19:15.492Z,99259.34
2023-03-04T01:29:21.166Z,99244.55
2023-03-04T01:39:26.754Z,99231.33
2023-03-04T01:49:32.575Z,99212.87
2023-03-04T01:59:39.618Z,99197.63
2023-03-04T02:09:45.849Z,99181.23
2023-03-04T02:19:52.400Z,99160.42
2023-03-04T02:29:58.215Z,99137.27
2023-03-04T02:40:04.344Z,99120.02
2023-03-04T02:50:12.469Z,99104.60
2023-03-04T03:00:18.415Z,99086.94
2023-03-04T03:10:24.449Z,99070.19
2023-03-04T03:20:30.152Z,99041.66
2023-03-04T03:30:36.048Z,99016.08
2023-03-04T03:40:42.271Z,99001.50
2023-03-04T03:50:47.942Z,99012.69
2023-03-04T04:00:55.850Z,99028.36
2023-03-04T04:11:02.780Z,99040.31
2023-03-04T04:21:09.098Z,99044.53
2023-03-04T04:31:14.879Z,99041.86
2023-03-04T04:41:23.822Z,99036.25
2023-03-04T04:51:29.601Z,99044.39
2023-03-04T05:01:35.554Z,99036.60
2023-03-04T05:11:41.232Z,99036.02
2023-03-04T05:21:47.113Z,99038.07
2023-03-04T05:31:52.785Z,99043.34
2023-03-04T05:41:58.413Z,99040.67
2023-03-04T05:52:04.119Z,99038.37
2023-03-04T06:02:09.874Z,99039.50
2023-03-04T06:12:15.711Z,99027.02
2023-03-04T06:22:21.323Z,99021.11
2023-03-04T06:32:27.149Z,99019.48
2023-03-04T06:42:32.811Z,99011.01
2023-03-04T06:52:38.484Z,99005.48
2023-03-04T07:02:44.249Z,99016.02
2023-03-04T07:12:50.015Z,99019.56
2023-03-04T07:22:55.887Z,99011.77
2023-03-04T07:33:01.476Z,98997.23
2023-03-04T07:43:07.490Z,98992.64
2023-03-04T07:53:13.122Z,98998.16
2023-03-04T08:03:18.906Z,98996.05
2023-03-04T08:13:25.913Z,98995.95
2023-03-04T08:23:31.651Z,98987.84
2023-03-04T08:33:37.586Z,98981.20
2023-03-04T08:43:43.531Z,98977.79
2023-03-04T08:53:49.185Z,98972.74
2023-03-04T09:03:54.854Z,98971.45
2023-03-04T09:14:00.560Z,98970.78
2023-03-04T09:24:06.651Z,98963.59
2023-03-04T09:34:12.488Z,98957.44
2023-03-04T09:44:26.915Z,98944.34
2023-03-04T09:55:04.993Z,98935.48
2023-03-04T10:05:15.842Z,98921.92
2023-03-04T10:15:29.418Z,98916.16
2023-03-04T10:25:36.234Z,98902.27
2023-03-04T10:35:40.356Z,98888.09
2023-03-04T10:45:47.052Z,98875.06
2023-03-04T10:55:51.473Z,98860.42
2023-03-04T11:06:12.010Z,98855.44
2023-03-04T11:16:28.736Z,98846.87
2023-03-04T11:26:40.544Z,98849.89
2023-03-04T11:36:57.318Z,98848.69
2023-03-04T11:47:08.623Z,98836.08
2023-03-04T11:57:29.975Z,98827.63
2023-03-04T12:07:53.423Z,98807.71
2023-03-04T12:18:16.202Z,98784.45
2023-03-04T12:28:35.920Z,98781.48
2023-03-04T12:38:59.065Z,98779.08
2023-03-04T12:49:27.245Z,98774.73
2023-03-04T12:59:38.792Z,98765.19
2023-03-04T13:09:52.740Z,98764.41
2023-03-04T13:20:12.790Z,98747.95
2023-03-04T13:31:06.786Z,98742.58
2023-03-04T13:41:17.168Z,98734.41
2023-03-04T13:51:30.069Z,98722.26
2023-03-04T14:01:38.190Z,98717.09
2023-03-04T14:11:45.168Z,98712.98
2023-03-04T14:21:50.943Z,98715.40
2023-03-04T14:31:57.773Z,98778.70
2023-03-04T14:42:04.531Z,98781.34
2023-03-04T14:52:23.677Z,98783.79
2023-03-04T15:02:33.239Z,98779.70
2023-03-04T15:12:39.713Z,98785.77
2023-03-04T15:33:15.853Z,98793.40
2023-03-04T15:43:23.475Z,98809.55
2023-03-04T15:53:33.762Z,98820.64
2023-03-04T16:03:39.489Z,98827.27
2023-03-04T16:13:45.247Z,98834.91
2023-03-04T16:23:52.896Z,98840.31
2023-03-04T16:33:58.540Z,98853.50
2023-03-04T16:44:04.345Z,98867.94
2023-03-04T16:54:14.704Z,98888.16
2023-03-04T17:04:20.451Z,98903.27
2023-03-04T17:14:26.191Z,98915.02
2023-03-04T17:24:32.454Z,98916.61
2023-03-04T17:34:38.095Z,98926.63
2023-03-04T17:44:44.275Z,98936.02
2023-03-04T17:54:50.156Z,98953.02
2023-03-04T18:04:55.821Z,98955.61
2023-03-04T18:15:01.567Z,98962.00
2023-03-04T18:25:10.698Z,98967.27
2023-03-04T18:35:16.557Z,98982.23
2023-03-04T18:45:22.534Z,98988.38
2023-03-04T18:55:28.383Z,99001.65
2023-03-04T19:05:35.369Z,99014.45
2023-03-04T19:15:41.048Z,99032.11
2023-03-04T19:25:47.449Z,99042.29
2023-03-04T19:35:53.417Z,99057.05
2023-03-04T19:45:59.411Z,99074.11
2023-03-04T19:56:05.309Z,99079.48
2023-03-04T20:06:11.641Z,99088.23
2023-03-04T20:16:17.746Z,99103.48
2023-03-04T20:26:23.727Z,99107.30
2023-03-04T20:36:31.059Z,99109.11
2023-03-04T20:46:41.066Z,99103.14
2023-03-04T20:56:47.338Z,99112.30
2023-03-04T21:06:53.614Z,99111.88
2023-03-04T21:17:00.988Z,99114.03
2023-03-04T21:27:08.075Z,99112.09
2023-03-04T21:37:13.985Z,99105.32
2023-03-04T21:47:20.054Z,99108.38
2023-03-04T21:57:25.737Z,99106.66
2023-03-04T22:07:31.341Z,99109.87
2023-03-04T22:17:35.956Z,99111.17
2023-03-04T22:27:41.831Z,99117.05
2023-03-04T22:37:47.829Z,99111.88
2023-03-04T22:47:54.794Z,99119.76
2023-03-04T22:58:00.600Z,99114.88
2023-03-04T23:08:06.613Z,99115.42
2023-03-04T23:18:12.353Z,99113.43
2023-03-04T23:28:18.018Z,99115.55
2023-03-04T23:38:23.715Z,99116.13
2023-03-04T23:48:29.531Z,99113.29
2023-03-04T23:58:35.212Z,99110.09
